Terminal Aerodrome Forecast
Issued by NWS Los Angeles, CA

Home | Current Version | Previous Version | Text Only | Print | Product List | Glossary On
Versions: 1 2 3 4 5 6 7 8 9 10 11 12 13 14 15 16 17 18 19 20 21 22 23 24 25 26 27
000
FTUS46 KLOX 241735
TAFSMX
TAF
KSMX 241735Z 2418/2518 29005KT 4SM BR OVC008
     FM241900 31008KT P6SM SCT008
     FM242000 30012KT P6SM SKC
     FM250300 30006KT P6SM BKN008
     FM250500 VRB03KT 4SM BR OVC004
     FM250900 00000KT 1/2SM FG VV002=

USA.gov is the U.S. government's official web portal to all federal, state and local government web resources and services.